Best, Texas
Current Conditions -  °F | °C
As of 1:15 PM on Tuesday 21 Oct 2014 (Local Time) from KOZA Reporting Station
Scattered Clouds Scattered Clouds  
Wind Chill: 75°   Ceiling: Unl
Heat Index: 75°   Visibility: 10mi
Dew Point: 52°   Wind: 7mph
Humidity: 44%   Direction: 110°ESE
Pressure: 30.11"   Gusts: 10mph
Location:  31.3662°N, 101.523°W
Report Text: KOZA 211815Z AUTO 11006G09KT 10SM SCT038 24/11 A3011 RMK AO2
Loading
Personal Weather Stations






























Interactive Weather Map
Tropical Storm Tracking
New forecast layout! Learn more

10-Day Weather Forecast

Advertisements
Track Severe Weather on mobile